Share

Αγία Πετρούπολη, Ρωσία

Sosnovka (MechMeteo) (IU0433U04) Elev 105 ft | 60.03 °N, 30.38 °E | Change Station

Current weather conditions updated 2 minutes ago

Clear
Αίθριος
67.8 ° F
Feels Like 67.8 ° F
N
1.0
Ανεμος Μεταβλητός Ανεμος from ΔΝΔ
Gusts 6.0 mph
Ανατολή 6:34 AM
Δύση 9:23 PM
Moon Αμφίκυρτος

Tomorrow is forecast to be Much Cooler than today.

Ατμοσφαιρική Πίεση 30.06 in
Ορατότητα -9999.0 Μίλια
Σύννεφα
Σημείο Δρόσου 14 ° F
Υγρασία 12%
Rainfall 0.00 in
Snow Depth Not available.
Υπεριώδης ακτινοβολία (UV) Not available.
Pollen Not available.
Air Quality Not available.
Flu Activity Not available.
METAR ULLI 181300Z 25005MPS 190V290 CAVOK 16/M04 Q1018 88090070 NOSIG

More Conditions Fewer Conditions

Ατμοσφαιρική Πίεση 30.06 in
Ορατότητα -9999.0 Μίλια
Σύννεφα
Σημείο Δρόσου 14 ° F
Υγρασία 12%
Rainfall 0.00 in
Snow Depth Not available.
Υπεριώδης ακτινοβολία (UV) Not available.
Pollen Not available.
Air Quality Not available.
Flu Activity Not available.
METAR ULLI 181300Z 25005MPS 190V290 CAVOK 16/M04 Q1018 88090070 NOSIG

More Conditions Fewer Conditions

10-Day Forecast

Almanac

Αστρονομία

Apr. 18, 2014 Rise Set
Actual Time 6:34 AM MSK 9:23 PM MSK
Civil Twilight 5:47 AM MSK 10:11 PM MSK
Nautical Twilight 4:43 AM MSK 11:15 PM MSK
Astronomical Twilight 3:06 AM MSK 12:58 AM MSK
Moon 12:18 AM MSK 8:05 AM MSK
Length Of Visible Light 16h 23m
Διάρκεια ημέρας
14h 49m
Tomorrow will be 5m 22s longer.
Αμφίκυρτος, 88% of the Moon is Illuminated
Σήμερα
Αμφίκυρτος
Apr 22
Τελευταίο τέταρτο
Apr 29
New
May 6
Πρώτο τέταρτο
May 14
Πανσέληνος

Yesterday's Extremes

Country Highs Country Lows

Community

  • What's for Lunch?
    What's for Lunch?
  • SUNRISE THROUGH THE TREES.
    SUNRISE THROUGH THE TREES.
  • Dog Wood Blossoms
    Dog Wood Blossoms
  • Morning Light
    Morning Light
  • New Day
    New Day

WunderPhotos

Upload Photos

1,702,358 photos uploaded!

Nearby

Snow Depth

Not available.

Coastal Water Temperatures

Τοποθεσία Θερμοκρασία
No Stations Reporting

Earthquake Activity

City Distance Mag. Time & Date
No recent earthquake activity has been reported nearby.
Minimum magnitude displayed is 2.5.

Nearby Weather Stations

Station Location Temp Σημείο Δρόσου Υγρασία Ανεμος Precip. Elev Ενημερώθηκε Type
Sosnovka (MechMeteo), %U0435%U0440%U0431%U0443%U0440%U0433 67.8 ° F 14 ° F 12% ΔΝΔ  με  1.0 mph 0.00 in / hr 105 ft 5:25 PM MSK Rapid Fire
Agalatovo, Elizavetinka 58.5 ° F 34 ° F 39% ΝΝΑ  με  2.0 mph - / hr 361 ft 5:24 PM MSK Normal
New Toksovo, Saint-Petersburg 62.1 ° F 32 ° F 32% ΝΝΔ  με  5.3 mph - / hr 282 ft 5:23 PM MSK Normal
Gliadino, U043E%U0431%U043B%U0430%U0441%U0442%U044C 62.1 ° F 29 ° F 28% Βόρειος  με  0.0 mph 0.00 in / hr 354 ft 5:27 PM MSK Normal

Show More Stations Show Fewer Stations

What do you think?

We're not finished. Please let us know what you like, what you don't like, and what you are still missing.